Time;durP1;ratioP1;P1;durP2;ratioP2;P2;SDS_P1;SDS_P2;PMS_P1;PMS_P2;Temp;Humidity;BMP_temperature;BMP_pressure;BME280_temperature;BME280_humidity;BME280_pressure;Samples;Min_cycle;Max_cycle;Signal;HPM_P1;HPM_P2
2021/01/31 00:02:05;;;;;;;26.52;5.90;;;;;;;;;;5007439;28;20046;-81
2021/01/31 00:04:33;;;;;;;25.33;5.88;;;;;;;;;;5019736;28;20038;-81
2021/01/31 00:07:00;;;;;;;19.60;5.88;;;;;;;;;;4994996;28;20105;-81
2021/01/31 00:09:27;;;;;;;27.20;5.60;;;;;;;;;;5007799;28;20041;-80
2021/01/31 00:11:54;;;;;;;19.63;5.13;;;;;;;;;;5006175;28;20440;-81
2021/01/31 00:14:21;;;;;;;24.13;4.93;;;;;;;;;;5015783;28;20038;-82
2021/01/31 00:16:48;;;;;;;18.63;5.30;;;;;;;;;;5009997;28;20045;-82
2021/01/31 00:19:15;;;;;;;19.20;5.88;;;;;;;;;;5012134;28;20077;-82
2021/01/31 00:21:42;;;;;;;23.55;5.32;;;;;;;;;;4998160;28;20484;-82
2021/01/31 00:24:09;;;;;;;18.27;4.63;;;;;;;;;;5024804;28;20030;-82
2021/01/31 00:26:36;;;;;;;21.15;4.95;;;;;;;;;;4998711;28;20041;-82
2021/01/31 00:29:04;;;;;;;17.75;5.82;;;;;;;;;;5021108;28;20065;-81
2021/01/31 00:31:31;;;;;;;22.67;4.93;;;;;;;;;;5002347;28;20030;-81
2021/01/31 00:33:58;;;;;;;21.52;4.40;;;;;;;;;;4992838;28;20117;-82
2021/01/31 00:36:25;;;;;;;26.30;6.72;;;;;;;;;;5003306;28;20104;-83
2021/01/31 00:38:52;;;;;;;23.13;4.32;;;;;;;;;;5017583;28;20509;-85
2021/01/31 00:41:19;;;;;;;25.42;5.50;;;;;;;;;;4993779;28;20037;-89
2021/01/31 00:43:46;;;;;;;23.00;5.50;;;;;;;;;;5013114;28;20026;-86
2021/01/31 00:46:13;;;;;;;32.92;5.53;;;;;;;;;;4994632;28;20041;-85
2021/01/31 00:48:40;;;;;;;27.95;5.05;;;;;;;;;;5058601;22;20068;-87
2021/01/31 00:51:07;;;;;;;23.73;4.95;;;;;;;;;;5072217;22;20049;-86
2021/01/31 00:53:35;;;;;;;24.48;4.90;;;;;;;;;;5071662;28;20182;-86
2021/01/31 00:56:02;;;;;;;22.20;4.63;;;;;;;;;;5035924;22;20092;-88
2021/01/31 00:58:29;;;;;;;19.20;4.93;;;;;;;;;;5031589;28;20853;-85
2021/01/31 01:00:56;;;;;;;20.67;3.92;;;;;;;;;;5023410;28;20036;-85
2021/01/31 01:03:23;;;;;;;21.33;4.03;;;;;;;;;;5048054;22;20046;-86
2021/01/31 01:05:50;;;;;;;21.05;4.20;;;;;;;;;;4991940;28;20049;-86
2021/01/31 01:08:17;;;;;;;18.52;4.15;;;;;;;;;;5011108;28;20084;-85
2021/01/31 01:10:46;;;;;;;23.50;5.30;;;;;;;;;;4987822;28;20133;-85
2021/01/31 01:13:13;;;;;;;21.17;5.40;;;;;;;;;;4994060;28;20030;-86
2021/01/31 01:15:40;;;;;;;21.90;4.78;;;;;;;;;;5010070;28;20034;-85
2021/01/31 01:18:07;;;;;;;27.27;5.43;;;;;;;;;;4992808;28;20257;-87
2021/01/31 01:20:34;;;;;;;20.48;3.42;;;;;;;;;;5002151;22;20054;-86
2021/01/31 01:23:02;;;;;;;25.95;4.72;;;;;;;;;;5023679;28;20049;-86
2021/01/31 01:25:29;;;;;;;20.48;3.90;;;;;;;;;;5017311;28;20121;-90
2021/01/31 01:27:56;;;;;;;17.55;3.58;;;;;;;;;;5035568;28;20387;-88
2021/01/31 01:30:29;;;;;;;19.10;3.97;;;;;;;;;;5015492;28;20038;-93
2021/01/31 01:32:57;;;;;;;18.98;3.95;;;;;;;;;;5005376;28;20034;-87
2021/01/31 01:35:25;;;;;;;15.63;4.07;;;;;;;;;;4995992;28;20088;-90
2021/01/31 01:38:01;;;;;;;19.35;4.07;;;;;;;;;;5015827;28;20022;-94
2021/01/31 01:40:36;;;;;;;24.20;5.40;;;;;;;;;;5004484;28;20042;-84
2021/01/31 01:43:04;;;;;;;22.15;4.10;;;;;;;;;;5005368;28;20053;-79
2021/01/31 01:45:31;;;;;;;21.85;4.22;;;;;;;;;;5000124;28;20444;-88
2021/01/31 01:48:00;;;;;;;18.45;3.70;;;;;;;;;;5011507;28;20033;-87
2021/01/31 01:50:30;;;;;;;24.95;3.58;;;;;;;;;;5002490;28;20073;-86
2021/01/31 01:52:58;;;;;;;22.02;4.72;;;;;;;;;;5016327;22;20085;-86
2021/01/31 01:55:27;;;;;;;22.20;4.97;;;;;;;;;;5042167;28;20399;-87
2021/01/31 01:58:00;;;;;;;24.13;4.53;;;;;;;;;;5047342;28;20056;-91
2021/01/31 02:00:28;;;;;;;23.70;3.40;;;;;;;;;;5048132;28;20610;-86
2021/01/31 02:03:13;;;;;;;19.80;3.72;;;;;;;;;;5034629;28;20033;-88
2021/01/31 02:05:44;;;;;;;21.25;3.30;;;;;;;;;;5022930;28;20090;-87
2021/01/31 02:08:11;;;;;;;19.33;3.65;;;;;;;;;;5036227;28;20033;-87
2021/01/31 02:10:38;;;;;;;18.88;4.13;;;;;;;;;;5034707;28;20044;-87
2021/01/31 02:13:06;;;;;;;20.65;4.18;;;;;;;;;;5050839;28;20036;-87
2021/01/31 02:15:33;;;;;;;22.13;4.05;;;;;;;;;;5067010;28;20033;-84
2021/01/31 02:18:20;;;;;;;17.58;3.10;;;;;;;;;;5034691;28;20029;-86
2021/01/31 02:21:03;;;;;;;14.57;3.67;;;;;;;;;;5033905;28;20060;-89
2021/01/31 02:23:30;;;;;;;20.08;3.03;;;;;;;;;;5033056;28;20526;-86
2021/01/31 02:25:58;;;;;;;12.23;2.50;;;;;;;;;;5043466;28;20029;-85
2021/01/31 02:28:54;;;;;;;16.73;4.15;;;;;;;;;;5073515;28;20036;-84
2021/01/31 02:31:28;;;;;;;19.58;4.15;;;;;;;;;;4976218;28;20455;-83
2021/01/31 02:34:04;;;;;;;18.58;3.58;;;;;;;;;;5051129;28;20507;-94
2021/01/31 02:36:34;;;;;;;25.58;4.93;;;;;;;;;;5048597;28;20525;-91
2021/01/31 02:39:10;;;;;;;22.02;3.80;;;;;;;;;;5019388;28;20455;-89
2021/01/31 02:41:55;;;;;;;17.98;3.65;;;;;;;;;;5043361;28;20033;-93
2021/01/31 02:44:24;;;;;;;22.63;4.13;;;;;;;;;;5035532;28;20033;-91
2021/01/31 02:46:56;;;;;;;23.65;4.45;;;;;;;;;;5035847;28;20506;-91
2021/01/31 02:49:43;;;;;;;22.67;3.80;;;;;;;;;;5036706;28;20037;-91
2021/01/31 02:52:45;;;;;;;21.42;3.67;;;;;;;;;;5031567;28;20038;-90
2021/01/31 02:55:47;;;;;;;24.35;4.03;;;;;;;;;;5034346;22;20068;-93
2021/01/31 03:00:46;;;;;;;17.73;3.88;;;;;;;;;;5050342;28;20052;-82
2021/01/31 03:03:24;;;;;;;20.83;3.75;;;;;;;;;;5069354;22;20053;-82
2021/01/31 03:05:53;;;;;;;20.02;4.63;;;;;;;;;;5032192;28;20032;-82
2021/01/31 03:08:23;;;;;;;19.55;4.00;;;;;;;;;;5033701;28;20079;-82
2021/01/31 03:13:31;;;;;;;17.20;4.63;;;;;;;;;;5063029;22;20049;-82
2021/01/31 03:16:09;;;;;;;23.83;4.05;;;;;;;;;;5051145;28;20033;-83
2021/01/31 03:18:39;;;;;;;16.42;3.80;;;;;;;;;;5065429;28;20067;-82
2021/01/31 03:21:13;;;;;;;22.83;3.80;;;;;;;;;;5070824;28;20115;-82
2021/01/31 03:23:46;;;;;;;24.65;5.35;;;;;;;;;;5049698;28;20074;-86
2021/01/31 03:26:29;;;;;;;23.15;5.43;;;;;;;;;;5071186;28;20024;-82
2021/01/31 03:28:56;;;;;;;21.52;4.50;;;;;;;;;;5080408;22;20115;-84
2021/01/31 03:31:25;;;;;;;22.00;3.33;;;;;;;;;;5071825;28;20040;-87
2021/01/31 03:33:58;;;;;;;16.30;2.78;;;;;;;;;;5053769;28;20039;-81
2021/01/31 03:36:26;;;;;;;24.60;3.42;;;;;;;;;;5050050;28;20115;-83
2021/01/31 03:38:54;;;;;;;23.00;3.50;;;;;;;;;;5054862;28;20040;-83
2021/01/31 03:41:23;;;;;;;22.35;4.03;;;;;;;;;;5052179;28;20037;-84
2021/01/31 03:43:50;;;;;;;18.70;3.55;;;;;;;;;;5072851;28;20025;-85
2021/01/31 03:46:22;;;;;;;19.63;3.95;;;;;;;;;;5070613;28;20032;-85
2021/01/31 03:48:55;;;;;;;24.85;4.53;;;;;;;;;;5054883;28;20040;-85
2021/01/31 03:51:23;;;;;;;29.37;4.17;;;;;;;;;;5050876;28;20028;-85
2021/01/31 03:53:50;;;;;;;27.58;4.72;;;;;;;;;;5069932;28;20268;-86
2021/01/31 03:56:21;;;;;;;23.98;4.97;;;;;;;;;;5068652;28;20064;-86
2021/01/31 03:58:51;;;;;;;21.08;4.78;;;;;;;;;;5072481;28;20044;-90
2021/01/31 04:01:19;;;;;;;25.55;5.47;;;;;;;;;;5078229;22;20634;-85
2021/01/31 04:03:49;;;;;;;29.08;3.65;;;;;;;;;;5033189;28;20033;-85
2021/01/31 04:06:19;;;;;;;20.20;3.78;;;;;;;;;;5013527;28;20041;-88
2021/01/31 04:08:52;;;;;;;20.55;4.20;;;;;;;;;;5015203;28;20057;-84
2021/01/31 04:11:34;;;;;;;16.88;2.85;;;;;;;;;;5030542;28;20499;-85
2021/01/31 04:14:05;;;;;;;23.83;4.78;;;;;;;;;;5014817;28;20029;-85
2021/01/31 04:16:38;;;;;;;19.08;3.45;;;;;;;;;;5004195;28;20026;-90
2021/01/31 04:19:05;;;;;;;16.08;3.88;;;;;;;;;;5011363;28;20038;-82
2021/01/31 04:21:32;;;;;;;16.92;3.55;;;;;;;;;;5019100;28;20033;-85
2021/01/31 04:23:59;;;;;;;22.95;4.63;;;;;;;;;;5032558;28;20033;-87
2021/01/31 04:26:26;;;;;;;21.70;4.05;;;;;;;;;;5030805;28;20095;-84
2021/01/31 04:28:53;;;;;;;16.48;3.22;;;;;;;;;;5032100;28;20052;-85
2021/01/31 04:31:20;;;;;;;24.65;3.90;;;;;;;;;;5028196;28;20034;-86
2021/01/31 04:33:47;;;;;;;18.23;3.33;;;;;;;;;;5015276;28;20032;-86
2021/01/31 04:36:14;;;;;;;17.27;3.15;;;;;;;;;;5014035;28;20515;-88
2021/01/31 04:38:41;;;;;;;18.85;3.50;;;;;;;;;;5032492;28;20048;-87
2021/01/31 04:41:10;;;;;;;22.92;4.55;;;;;;;;;;5030175;28;20033;-86
2021/01/31 04:43:37;;;;;;;20.80;4.10;;;;;;;;;;5032291;28;20034;-92
2021/01/31 04:46:06;;;;;;;20.90;4.32;;;;;;;;;;5030860;28;20032;-92
2021/01/31 04:48:38;;;;;;;18.40;3.63;;;;;;;;;;5033267;28;20061;-90
2021/01/31 04:51:05;;;;;;;25.27;5.93;;;;;;;;;;5031062;28;20048;-88
2021/01/31 04:53:35;;;;;;;18.38;3.65;;;;;;;;;;5032908;28;20025;-89
2021/01/31 04:56:22;;;;;;;23.50;4.65;;;;;;;;;;5029466;28;20061;-90
2021/01/31 04:58:50;;;;;;;26.70;4.97;;;;;;;;;;5015501;28;20049;-90
2021/01/31 05:04:01;;;;;;;20.40;3.97;;;;;;;;;;5065659;22;20067;-90
2021/01/31 05:06:32;;;;;;;21.02;4.53;;;;;;;;;;5061942;22;20083;-90
2021/01/31 05:08:59;;;;;;;17.92;4.40;;;;;;;;;;5042618;28;20104;-90
2021/01/31 05:11:49;;;;;;;23.27;3.67;;;;;;;;;;5075268;23;20140;-87
2021/01/31 05:14:30;;;;;;;20.48;4.43;;;;;;;;;;5048346;28;20029;-87
2021/01/31 05:16:57;;;;;;;17.48;4.13;;;;;;;;;;5070173;28;20033;-84
2021/01/31 05:19:30;;;;;;;20.10;4.13;;;;;;;;;;5041592;22;20053;-87
2021/01/31 05:21:57;;;;;;;29.50;5.07;;;;;;;;;;5012280;28;20026;-89
2021/01/31 05:24:25;;;;;;;21.65;4.53;;;;;;;;;;5011650;28;20046;-87
2021/01/31 05:26:55;;;;;;;23.00;4.10;;;;;;;;;;4994875;28;20499;-87
2021/01/31 05:29:23;;;;;;;22.50;4.13;;;;;;;;;;5006151;28;20069;-86
2021/01/31 05:32:05;;;;;;;22.17;3.80;;;;;;;;;;4998427;28;20052;-90
2021/01/31 05:37:01;;;;;;;25.75;3.58;;;;;;;;;;5051222;22;20045;-85
2021/01/31 05:39:43;;;;;;;19.10;3.35;;;;;;;;;;5032624;28;20041;-85
2021/01/31 05:42:18;;;;;;;22.00;3.63;;;;;;;;;;5045781;28;20037;-81
2021/01/31 05:44:57;;;;;;;29.02;4.63;;;;;;;;;;5033110;28;20118;-81
2021/01/31 05:47:26;;;;;;;24.85;3.55;;;;;;;;;;5047071;28;20491;-79
2021/01/31 05:49:54;;;;;;;21.75;4.13;;;;;;;;;;5046320;28;20045;-82
2021/01/31 05:52:24;;;;;;;22.10;4.30;;;;;;;;;;5049878;28;20032;-82
2021/01/31 05:54:52;;;;;;;18.55;3.75;;;;;;;;;;5049361;28;20029;-83
2021/01/31 05:57:28;;;;;;;20.58;4.68;;;;;;;;;;5049042;28;20541;-82
2021/01/31 05:59:56;;;;;;;26.23;4.75;;;;;;;;;;5045594;28;20044;-83
2021/01/31 06:02:31;;;;;;;22.65;4.07;;;;;;;;;;5049648;28;20025;-84
2021/01/31 06:05:16;;;;;;;23.35;3.85;;;;;;;;;;5048742;28;20100;-83
2021/01/31 06:07:44;;;;;;;23.90;3.10;;;;;;;;;;5059633;22;20124;-80
2021/01/31 06:10:15;;;;;;;19.42;4.28;;;;;;;;;;5007323;28;20496;-80
2021/01/31 06:12:43;;;;;;;16.25;3.20;;;;;;;;;;4997281;28;20551;-81
2021/01/31 06:15:11;;;;;;;17.92;3.05;;;;;;;;;;5009543;28;20038;-79
2021/01/31 06:17:38;;;;;;;25.33;4.07;;;;;;;;;;5009567;28;20041;-80
2021/01/31 06:20:11;;;;;;;20.45;4.65;;;;;;;;;;5009865;28;20046;-80
2021/01/31 06:22:38;;;;;;;23.48;4.47;;;;;;;;;;5007726;28;20038;-79
2021/01/31 06:25:06;;;;;;;21.83;3.47;;;;;;;;;;5009311;28;20547;-78
2021/01/31 06:27:35;;;;;;;24.90;3.47;;;;;;;;;;5008505;28;20037;-81
2021/01/31 06:30:05;;;;;;;19.65;3.58;;;;;;;;;;5014015;28;20089;-77
2021/01/31 06:32:33;;;;;;;28.85;3.95;;;;;;;;;;5009402;28;20109;-77
2021/01/31 06:35:08;;;;;;;20.13;3.33;;;;;;;;;;5011295;28;20086;-78
2021/01/31 06:37:53;;;;;;;21.67;3.97;;;;;;;;;;5010882;28;20042;-78
2021/01/31 06:40:38;;;;;;;18.95;3.63;;;;;;;;;;5001209;28;20116;-80
2021/01/31 06:43:05;;;;;;;17.80;2.55;;;;;;;;;;5009922;28;20169;-78
2021/01/31 06:45:32;;;;;;;22.17;3.25;;;;;;;;;;5007304;28;20033;-77
2021/01/31 06:48:09;;;;;;;18.50;3.15;;;;;;;;;;5007792;28;20112;-78
2021/01/31 06:50:39;;;;;;;21.65;3.47;;;;;;;;;;5008004;28;20071;-78
2021/01/31 06:53:16;;;;;;;19.58;2.75;;;;;;;;;;5008856;28;20087;-77
2021/01/31 06:55:49;;;;;;;17.70;3.05;;;;;;;;;;5007878;28;20464;-78
2021/01/31 06:58:21;;;;;;;22.57;3.00;;;;;;;;;;5005331;28;20554;-77
2021/01/31 07:01:01;;;;;;;28.70;8.95;;;;;;;;;;5000886;28;20326;-77
2021/01/31 07:03:43;;;;;;;23.88;4.30;;;;;;;;;;5009247;28;20069;-78
2021/01/31 07:06:22;;;;;;;21.60;3.03;;;;;;;;;;5008818;28;20065;-79
2021/01/31 07:11:25;;;;;;;26.85;4.43;;;;;;;;;;5066459;22;20041;-79
2021/01/31 07:13:54;;;;;;;27.85;5.28;;;;;;;;;;5032239;28;20037;-77
2021/01/31 07:16:21;;;;;;;22.25;4.85;;;;;;;;;;5032736;22;20059;-78
2021/01/31 07:18:57;;;;;;;30.70;6.57;;;;;;;;;;5044083;28;20111;-77
2021/01/31 07:21:37;;;;;;;21.33;3.60;;;;;;;;;;5041730;28;20115;-78
2021/01/31 07:24:07;;;;;;;24.08;3.58;;;;;;;;;;5051590;28;20395;-79
2021/01/31 07:26:43;;;;;;;15.73;3.63;;;;;;;;;;5102480;22;20062;-84
2021/01/31 07:29:14;;;;;;;17.23;2.72;;;;;;;;;;5093022;28;20032;-82
2021/01/31 07:31:43;;;;;;;21.23;4.25;;;;;;;;;;5089675;28;20024;-84
2021/01/31 07:34:28;;;;;;;20.45;4.55;;;;;;;;;;5086061;28;20024;-84
2021/01/31 07:37:07;;;;;;;32.95;4.78;;;;;;;;;;5086298;28;20036;-83
2021/01/31 07:39:47;;;;;;;22.73;3.55;;;;;;;;;;5080986;28;20044;-83
2021/01/31 07:42:15;;;;;;;28.58;4.85;;;;;;;;;;5083538;22;20055;-84
2021/01/31 07:44:43;;;;;;;23.80;5.13;;;;;;;;;;5068187;28;20116;-84
2021/01/31 07:47:10;;;;;;;23.60;4.93;;;;;;;;;;5070980;28;20058;-84
2021/01/31 07:49:55;;;;;;;23.45;3.92;;;;;;;;;;5091910;28;20039;-84
2021/01/31 07:52:27;;;;;;;29.13;4.03;;;;;;;;;;5085378;28;20060;-85
2021/01/31 07:55:10;;;;;;;24.23;4.00;;;;;;;;;;5079029;28;20047;-84
2021/01/31 07:57:38;;;;;;;27.17;3.87;;;;;;;;;;5088462;28;20093;-86
2021/01/31 08:00:13;;;;;;;22.20;3.78;;;;;;;;;;5088320;28;20127;-87
2021/01/31 08:02:42;;;;;;;17.77;4.30;;;;;;;;;;5086567;28;20036;-88
2021/01/31 08:05:35;;;;;;;15.32;3.28;;;;;;;;;;5063405;28;20032;-86
2021/01/31 08:08:04;;;;;;;36.50;5.22;;;;;;;;;;5087337;28;20032;-86
2021/01/31 08:10:47;;;;;;;20.15;3.85;;;;;;;;;;5088758;28;20429;-90
2021/01/31 08:13:32;;;;;;;21.88;3.50;;;;;;;;;;5082335;28;20036;-91
2021/01/31 08:15:59;;;;;;;22.83;3.63;;;;;;;;;;5088643;22;20056;-92
2021/01/31 08:18:26;;;;;;;22.38;3.80;;;;;;;;;;5056989;28;20041;-90
2021/01/31 08:20:54;;;;;;;22.33;3.15;;;;;;;;;;5038837;28;20064;-91
2021/01/31 08:23:24;;;;;;;24.85;3.92;;;;;;;;;;5054350;28;20036;-90
2021/01/31 08:26:02;;;;;;;18.13;3.45;;;;;;;;;;5070768;28;20056;-85
2021/01/31 08:28:38;;;;;;;28.58;4.55;;;;;;;;;;5072853;28;20517;-90
2021/01/31 08:31:13;;;;;;;22.20;3.50;;;;;;;;;;5070562;28;20036;-90
2021/01/31 08:33:41;;;;;;;33.42;4.82;;;;;;;;;;5067584;28;20031;-91
2021/01/31 08:36:10;;;;;;;25.08;4.28;;;;;;;;;;5062822;28;20033;-92
2021/01/31 08:38:43;;;;;;;27.65;4.43;;;;;;;;;;5062640;28;20037;-89
2021/01/31 08:41:11;;;;;;;22.38;3.95;;;;;;;;;;5051303;28;20079;-88
2021/01/31 08:43:49;;;;;;;24.38;4.30;;;;;;;;;;5049916;28;20199;-90
2021/01/31 08:46:19;;;;;;;21.95;3.63;;;;;;;;;;5054139;28;20059;-89
2021/01/31 08:49:04;;;;;;;20.25;3.75;;;;;;;;;;5071531;28;20513;-89
2021/01/31 08:51:32;;;;;;;21.95;4.43;;;;;;;;;;5069560;28;20037;-90
2021/01/31 08:54:14;;;;;;;23.92;3.70;;;;;;;;;;5054801;28;20040;-90
2021/01/31 08:56:42;;;;;;;24.65;3.40;;;;;;;;;;5083845;28;20033;-92
2021/01/31 08:59:14;;;;;;;27.38;3.70;;;;;;;;;;5072692;28;20098;-93
2021/01/31 09:01:42;;;;;;;20.92;3.28;;;;;;;;;;5069730;28;20418;-91
2021/01/31 09:04:13;;;;;;;28.92;3.72;;;;;;;;;;5067455;28;20029;-89
2021/01/31 09:06:43;;;;;;;25.20;3.90;;;;;;;;;;5068016;28;20053;-90
2021/01/31 09:09:22;;;;;;;18.85;3.75;;;;;;;;;;5072636;28;20033;-89
2021/01/31 09:11:53;;;;;;;21.55;3.47;;;;;;;;;;5072490;28;20093;-89
2021/01/31 09:14:21;;;;;;;22.83;3.50;;;;;;;;;;5043222;28;20033;-91
2021/01/31 09:16:48;;;;;;;20.90;3.70;;;;;;;;;;5079687;22;20049;-89
2021/01/31 09:19:18;;;;;;;22.15;3.15;;;;;;;;;;5056142;22;20491;-89
2021/01/31 09:21:46;;;;;;;19.55;3.10;;;;;;;;;;5052650;28;20037;-89
2021/01/31 09:24:16;;;;;;;20.02;4.65;;;;;;;;;;5054154;22;20080;-90
2021/01/31 09:26:56;;;;;;;25.23;4.65;;;;;;;;;;5030042;28;20033;-88
2021/01/31 09:29:28;;;;;;;23.27;4.22;;;;;;;;;;5018599;28;20577;-90
2021/01/31 09:31:57;;;;;;;19.48;3.58;;;;;;;;;;5055410;22;20132;-90
2021/01/31 09:34:26;;;;;;;16.02;3.80;;;;;;;;;;5051688;28;20419;-89
2021/01/31 09:37:08;;;;;;;23.88;3.42;;;;;;;;;;5051208;28;20037;-90
2021/01/31 09:39:36;;;;;;;20.48;3.40;;;;;;;;;;5026950;28;20068;-89
2021/01/31 09:42:04;;;;;;;24.90;3.40;;;;;;;;;;5030409;28;20033;-89
2021/01/31 09:44:33;;;;;;;16.90;3.47;;;;;;;;;;5017762;28;20033;-88
2021/01/31 09:47:00;;;;;;;20.85;3.35;;;;;;;;;;5034616;28;20034;-88
2021/01/31 09:49:28;;;;;;;14.82;3.55;;;;;;;;;;5017134;22;20053;-88
2021/01/31 09:52:05;;;;;;;16.80;2.97;;;;;;;;;;5014488;28;20033;-88
2021/01/31 09:54:33;;;;;;;23.25;4.95;;;;;;;;;;5033204;28;20033;-87
2021/01/31 09:57:02;;;;;;;17.73;3.22;;;;;;;;;;5014630;28;20037;-88
2021/01/31 09:59:31;;;;;;;22.13;3.33;;;;;;;;;;5000327;28;20045;-84
2021/01/31 10:02:04;;;;;;;23.08;4.70;;;;;;;;;;5015308;28;20094;-86
2021/01/31 10:04:32;;;;;;;19.40;3.20;;;;;;;;;;5015376;28;20499;-86
2021/01/31 10:07:11;;;;;;;22.45;3.83;;;;;;;;;;4997571;28;20040;-87
2021/01/31 10:09:50;;;;;;;14.48;2.22;;;;;;;;;;5022841;28;20049;-86
2021/01/31 10:12:26;;;;;;;18.02;3.50;;;;;;;;;;5023660;28;20030;-85
2021/01/31 10:14:57;;;;;;;22.60;2.83;;;;;;;;;;5015857;28;20822;-85
2021/01/31 10:17:30;;;;;;;20.85;2.75;;;;;;;;;;5013857;28;20041;-87
2021/01/31 10:20:16;;;;;;;17.67;3.22;;;;;;;;;;5016092;28;20057;-86
2021/01/31 10:22:43;;;;;;;21.88;2.97;;;;;;;;;;5050937;22;20040;-85
2021/01/31 10:25:13;;;;;;;32.97;4.03;;;;;;;;;;5038564;28;20042;-86
2021/01/31 10:27:48;;;;;;;18.98;2.75;;;;;;;;;;5048250;28;20528;-86
2021/01/31 10:30:20;;;;;;;19.40;2.25;;;;;;;;;;5049384;28;20125;-86
2021/01/31 10:32:47;;;;;;;19.88;3.05;;;;;;;;;;5050056;28;20025;-85
2021/01/31 10:35:25;;;;;;;24.75;3.05;;;;;;;;;;5047999;28;20033;-86
2021/01/31 10:37:52;;;;;;;17.70;3.08;;;;;;;;;;5050117;28;20116;-85
2021/01/31 10:40:20;;;;;;;17.42;2.85;;;;;;;;;;5049720;28;20542;-86
2021/01/31 10:42:47;;;;;;;20.38;2.92;;;;;;;;;;5048971;28;20124;-86
2021/01/31 10:45:16;;;;;;;31.60;2.80;;;;;;;;;;5043887;28;20056;-86
2021/01/31 10:47:46;;;;;;;19.55;3.33;;;;;;;;;;5053058;28;20078;-86
2021/01/31 10:50:18;;;;;;;18.17;2.53;;;;;;;;;;5047526;28;20040;-86
2021/01/31 10:52:47;;;;;;;19.98;2.83;;;;;;;;;;5043083;28;20397;-85
2021/01/31 10:55:14;;;;;;;20.33;3.72;;;;;;;;;;5046681;28;20030;-86
2021/01/31 10:57:41;;;;;;;20.10;3.15;;;;;;;;;;5052874;28;20441;-86
2021/01/31 11:00:10;;;;;;;23.92;3.33;;;;;;;;;;5051423;28;20052;-85
2021/01/31 11:02:37;;;;;;;15.27;2.10;;;;;;;;;;5053518;28;20074;-85
2021/01/31 11:05:06;;;;;;;17.73;2.35;;;;;;;;;;5049652;28;20036;-85
2021/01/31 11:07:33;;;;;;;22.88;3.03;;;;;;;;;;5055987;28;20040;-86
2021/01/31 11:10:01;;;;;;;13.77;2.35;;;;;;;;;;5053443;28;20037;-86
2021/01/31 11:12:28;;;;;;;24.35;2.83;;;;;;;;;;5032080;28;20479;-85
2021/01/31 11:14:55;;;;;;;16.50;2.63;;;;;;;;;;5052334;28;20040;-86
2021/01/31 11:17:23;;;;;;;21.77;2.92;;;;;;;;;;5053049;28;20549;-86
2021/01/31 11:19:50;;;;;;;17.70;2.25;;;;;;;;;;5049845;28;20499;-85
2021/01/31 11:22:17;;;;;;;22.90;2.88;;;;;;;;;;5054556;22;20055;-85
2021/01/31 11:24:45;;;;;;;23.65;2.95;;;;;;;;;;5089095;22;20060;-85
2021/01/31 11:27:13;;;;;;;21.40;2.90;;;;;;;;;;5078148;22;20106;-86
2021/01/31 11:29:40;;;;;;;22.75;3.88;;;;;;;;;;5071010;28;20037;-85
2021/01/31 11:32:07;;;;;;;16.80;2.60;;;;;;;;;;5065540;22;20049;-85
2021/01/31 11:34:35;;;;;;;13.30;2.65;;;;;;;;;;5043048;28;20048;-85
2021/01/31 11:37:02;;;;;;;18.33;2.38;;;;;;;;;;5048997;28;20033;-85
2021/01/31 11:39:29;;;;;;;18.77;3.45;;;;;;;;;;5059688;22;20056;-85
2021/01/31 11:41:57;;;;;;;14.23;3.38;;;;;;;;;;5050694;28;20029;-86
2021/01/31 11:44:25;;;;;;;15.35;2.17;;;;;;;;;;5047083;28;20095;-86
2021/01/31 11:46:52;;;;;;;16.92;2.88;;;;;;;;;;5040819;28;20049;-86
2021/01/31 11:49:19;;;;;;;18.92;3.47;;;;;;;;;;5038981;28;20037;-85
2021/01/31 11:51:46;;;;;;;18.08;1.90;;;;;;;;;;5040282;28;20021;-86
2021/01/31 11:54:13;;;;;;;16.30;2.58;;;;;;;;;;5051484;28;20040;-86
2021/01/31 11:56:40;;;;;;;14.98;2.22;;;;;;;;;;5078051;22;20537;-85
2021/01/31 11:59:08;;;;;;;18.80;2.72;;;;;;;;;;5039807;28;20066;-86
2021/01/31 12:01:38;;;;;;;15.43;1.70;;;;;;;;;;5049883;28;20036;-85
2021/01/31 12:04:05;;;;;;;18.35;3.25;;;;;;;;;;5028683;28;20078;-85
2021/01/31 12:06:32;;;;;;;19.95;3.15;;;;;;;;;;5027437;28;20033;-85
2021/01/31 12:09:00;;;;;;;17.20;3.38;;;;;;;;;;5033977;28;20115;-85
2021/01/31 12:11:28;;;;;;;17.52;2.10;;;;;;;;;;5060172;28;20031;-85
2021/01/31 12:13:59;;;;;;;20.13;3.42;;;;;;;;;;5049507;28;20025;-85
2021/01/31 12:16:26;;;;;;;21.63;3.38;;;;;;;;;;5053665;28;20033;-84
2021/01/31 12:18:53;;;;;;;16.98;2.45;;;;;;;;;;5032424;28;20037;-85
2021/01/31 12:21:20;;;;;;;15.65;2.15;;;;;;;;;;5039999;28;20032;-85
2021/01/31 12:23:47;;;;;;;12.20;2.35;;;;;;;;;;5056406;28;20036;-85
2021/01/31 12:26:15;;;;;;;13.65;2.00;;;;;;;;;;5048981;28;20041;-86
2021/01/31 12:28:42;;;;;;;15.32;2.00;;;;;;;;;;5060242;22;20556;-85
2021/01/31 12:31:09;;;;;;;21.80;3.00;;;;;;;;;;5069603;28;20166;-85
2021/01/31 12:33:36;;;;;;;20.50;3.53;;;;;;;;;;5053982;28;20051;-85
2021/01/31 12:36:03;;;;;;;18.55;2.10;;;;;;;;;;5058769;28;20032;-85
2021/01/31 12:38:30;;;;;;;16.00;2.65;;;;;;;;;;5043006;28;20095;-86
2021/01/31 12:40:57;;;;;;;17.35;2.30;;;;;;;;;;5055136;28;20095;-85
2021/01/31 12:43:25;;;;;;;12.35;1.63;;;;;;;;;;5051735;28;20060;-85
2021/01/31 12:45:52;;;;;;;19.17;3.13;;;;;;;;;;5046280;28;20130;-85
2021/01/31 12:48:19;;;;;;;14.60;2.10;;;;;;;;;;5063031;28;20596;-85
2021/01/31 12:50:46;;;;;;;17.25;3.20;;;;;;;;;;5036818;28;20039;-85
2021/01/31 12:53:13;;;;;;;19.38;2.88;;;;;;;;;;5062418;28;20560;-85
2021/01/31 12:55:40;;;;;;;13.52;2.15;;;;;;;;;;5055465;28;20045;-85
2021/01/31 12:58:08;;;;;;;17.20;2.25;;;;;;;;;;5047099;28;20565;-85
2021/01/31 13:00:35;;;;;;;16.13;2.47;;;;;;;;;;5045733;28;20052;-85
2021/01/31 13:03:02;;;;;;;18.63;1.80;;;;;;;;;;5033377;28;20063;-86
2021/01/31 13:05:32;;;;;;;28.67;3.60;;;;;;;;;;5046823;28;20047;-86
2021/01/31 13:07:59;;;;;;;20.23;2.53;;;;;;;;;;5043429;28;20076;-85
2021/01/31 13:10:29;;;;;;;21.35;2.50;;;;;;;;;;5035799;28;20078;-85
2021/01/31 13:12:56;;;;;;;13.35;2.45;;;;;;;;;;5042373;28;20057;-85
2021/01/31 13:15:24;;;;;;;16.92;2.25;;;;;;;;;;5048203;28;20041;-85
2021/01/31 13:17:51;;;;;;;18.80;2.65;;;;;;;;;;5045294;28;20067;-86
2021/01/31 13:20:19;;;;;;;19.20;2.78;;;;;;;;;;5035296;28;20045;-85
2021/01/31 13:22:46;;;;;;;17.63;2.47;;;;;;;;;;5054220;28;20041;-85
2021/01/31 13:25:13;;;;;;;17.80;2.97;;;;;;;;;;5055835;28;20041;-85
2021/01/31 13:27:40;;;;;;;16.25;2.10;;;;;;;;;;5053817;28;20132;-85
2021/01/31 13:30:09;;;;;;;25.55;2.20;;;;;;;;;;5080399;22;20155;-85
2021/01/31 13:32:36;;;;;;;25.52;3.15;;;;;;;;;;5047205;22;20076;-83
2021/01/31 13:35:04;;;;;;;14.70;2.65;;;;;;;;;;5074331;28;20087;-84
2021/01/31 13:37:31;;;;;;;21.20;3.30;;;;;;;;;;5075657;23;20179;-84
2021/01/31 13:39:58;;;;;;;16.58;1.98;;;;;;;;;;5024524;28;20050;-84
2021/01/31 13:42:25;;;;;;;15.40;2.00;;;;;;;;;;5032217;28;20030;-85
2021/01/31 13:44:52;;;;;;;17.40;1.83;;;;;;;;;;5035566;28;20048;-84
2021/01/31 13:47:19;;;;;;;16.42;2.28;;;;;;;;;;5050387;23;20508;-84
2021/01/31 13:49:46;;;;;;;10.68;1.80;;;;;;;;;;5034280;28;20033;-84
2021/01/31 13:52:13;;;;;;;14.10;2.85;;;;;;;;;;5012359;28;20262;-84
2021/01/31 13:54:40;;;;;;;13.60;2.47;;;;;;;;;;5031930;28;20045;-84
2021/01/31 13:57:08;;;;;;;12.00;2.60;;;;;;;;;;5029755;28;20077;-84
2021/01/31 13:59:35;;;;;;;17.13;2.67;;;;;;;;;;5025232;28;20041;-84
2021/01/31 14:02:02;;;;;;;13.52;2.33;;;;;;;;;;5022372;28;20034;-84
2021/01/31 14:04:29;;;;;;;15.23;2.42;;;;;;;;;;5058080;23;20508;-84
2021/01/31 14:06:57;;;;;;;12.95;2.28;;;;;;;;;;5070252;28;20041;-84
2021/01/31 14:09:25;;;;;;;16.15;2.30;;;;;;;;;;5061416;28;20021;-84
2021/01/31 14:11:52;;;;;;;15.15;2.85;;;;;;;;;;5061799;28;20029;-84
2021/01/31 14:14:19;;;;;;;12.10;2.60;;;;;;;;;;5072830;28;20033;-84
2021/01/31 14:16:46;;;;;;;17.02;3.17;;;;;;;;;;5060789;28;20032;-84
2021/01/31 14:19:13;;;;;;;21.33;2.78;;;;;;;;;;5054592;28;20388;-84
2021/01/31 14:21:40;;;;;;;15.45;2.38;;;;;;;;;;5055973;28;20033;-83
2021/01/31 14:24:07;;;;;;;17.27;2.10;;;;;;;;;;5054573;28;20037;-83
2021/01/31 14:26:35;;;;;;;16.38;2.38;;;;;;;;;;5058963;28;20269;-84
2021/01/31 14:29:03;;;;;;;15.18;2.30;;;;;;;;;;5061051;28;20032;-84
2021/01/31 14:31:30;;;;;;;16.52;2.83;;;;;;;;;;5071819;28;20398;-84
2021/01/31 14:33:58;;;;;;;17.35;3.25;;;;;;;;;;5064346;28;20064;-83
2021/01/31 14:36:25;;;;;;;10.30;2.80;;;;;;;;;;5067014;22;20183;-84
2021/01/31 14:38:52;;;;;;;17.88;3.00;;;;;;;;;;5054305;28;20033;-83
2021/01/31 14:41:19;;;;;;;15.05;1.92;;;;;;;;;;5050701;28;20116;-83
2021/01/31 14:43:46;;;;;;;14.48;1.98;;;;;;;;;;5050555;28;20037;-83
2021/01/31 14:46:14;;;;;;;16.35;2.35;;;;;;;;;;5051815;28;20037;-83
2021/01/31 14:48:41;;;;;;;13.75;2.05;;;;;;;;;;5036150;28;20499;-84
2021/01/31 14:51:08;;;;;;;12.63;2.53;;;;;;;;;;5051377;28;20044;-83
2021/01/31 14:53:35;;;;;;;15.60;2.53;;;;;;;;;;5035051;28;20112;-84
2021/01/31 14:56:02;;;;;;;17.88;2.65;;;;;;;;;;5044316;28;20045;-83
2021/01/31 14:58:29;;;;;;;17.05;2.63;;;;;;;;;;5034447;28;20060;-84
2021/01/31 15:00:56;;;;;;;15.65;2.83;;;;;;;;;;5037324;28;20044;-84
2021/01/31 15:03:23;;;;;;;14.52;2.88;;;;;;;;;;5053974;28;20068;-84